ADDS METAR Data INFO
IDs: Format: Raw Decoded Include TAF

Data at: 1150 UTC 21 Jun 2018

METAR for:KHWO (Hollywood/North Perr, FL, US)
Text:KHWO 211053Z 00000KT 10SM CLR 27/24 A2997 RMK AO2 SLP147 T02670244
Temperature: 26.7°C ( 80°F)
Dewpoint: 24.4°C ( 76°F) [RH = 87%]
Pressure (altimeter):29.97 inches Hg (1015.0 mb) [Sea level pressure: 1014.7 mb]
Winds:calm
Visibility:10 or more sm (16+ km)
Ceiling:at least 12,000 feet AGL
Clouds:sky clear below 12,000 feet AGL